Sierra Loba — PJYS — position and weather

sailwx.info

Track history (hours):
 
Tides and Currents Weather Stations Pressure Air Temp Water Temp Dewpoint Dewpoint Depression Visibility Wind Speed Wind Dir Waves Ship Positions

Sierra Loba

Last reported at 2017-Dec-18 16:30 UTC. Time now 2017-Dec-18 16:48 UTC.
Position N 53°58' E 009°15'.

Length 118 m; draft 4.5 m.

Type: Cargo ship. MMSI: 306872000.

Date/timePositionNaut miles runAvg speedWind from/ knotsBaromVisibWave heightAir tempDewpointWater temp
2017-Dec-18 16:30N 53°58' E 009°15'4 7.8
2017-Dec-18 16:01N 54°01' E 009°18'4 7.7
2017-Dec-18 15:30N 54°05' E 009°19'4 8.4
2017-Dec-18 15:00N 54°09' E 009°21'4 7.6
2017-Dec-18 14:30N 54°11' E 009°27'4 8.6
2017-Dec-18 14:00N 54°12' E 009°34'4 7.5
2017-Dec-18 13:30N 54°16' E 009°37'0 0.9
2017-Dec-18 13:00N 54°16' E 009°38'3 6.7
2017-Dec-18 12:30N 54°18' E 009°42'3 5.9
2017-Dec-18 12:00N 54°20' E 009°45'4 7.7
2017-Dec-18 11:30N 54°22' E 009°51'10 4.9
2017-Dec-18 09:26N 54°22' E 010°09'1 2.7
2017-Dec-18 08:59N 54°23' E 010°11'7 5.9
2017-Dec-18 07:46N 54°29' E 010°16'413.0
2017-Dec-18 07:27N 54°31' E 010°22'714.6
2017-Dec-18 07:01N 54°34' E 010°32'714.7
2017-Dec-18 06:31N 54°35' E 010°45'815.2
2017-Dec-18 06:01N 54°36' E 010°58'715.0
2017-Dec-18 05:31N 54°36' E 011°11'815.4
2017-Dec-18 05:01N 54°33' E 011°22'815.2
2017-Dec-18 04:31N 54°29' E 011°34'715.0
2017-Dec-18 04:01N 54°27' E 011°46'1912.1
2017-Dec-18 02:28N 54°36' E 012°14'814.4
2017-Dec-18 01:55N 54°41' E 012°26'714.3
2017-Dec-18 01:27N 54°45' E 012°35'6913.5
2017-Dec-17 20:21N 54°39' E 014°34'615.1
2017-Dec-17 19:59N 54°41' E 014°43'914.9
2017-Dec-17 19:22N 54°43' E 014°58'514.9
2017-Dec-17 19:01N 54°45' E 015°07'12614.4
2017-Dec-17 10:17N 55°20' E 018°38'414.3
2017-Dec-17 09:59N 55°21' E 018°45'  
2017-Dec-12 15:56N 56°03' E 016°44'613.3
2017-Dec-12 15:30N 56°00' E 016°35'713.2
2017-Dec-12 15:00N 55°57' E 016°25'713.3
2017-Dec-12 14:30N 55°54' E 016°14'713.6
2017-Dec-12 14:00N 55°50' E 016°04'713.5
2017-Dec-12 13:30N 55°47' E 015°53'713.8
2017-Dec-12 13:00N 55°44' E 015°43'713.9
2017-Dec-12 12:30N 55°40' E 015°32'713.9
2017-Dec-12 12:01N 55°37' E 015°21'714.0
2017-Dec-12 11:30N 55°34' E 015°10'813.9
2017-Dec-12 10:58N 55°30' E 014°58'714.2
2017-Dec-12 10:30N 55°27' E 014°48'713.9
2017-Dec-12 10:00N 55°24' E 014°38'713.9
2017-Dec-12 09:30N 55°18' E 014°30'713.7
2017-Dec-12 09:00N 55°13' E 014°22'713.3
2017-Dec-12 08:31N 55°10' E 014°12'1514.4
2017-Dec-12 07:27N 55°11' E 013°45'2014.3
2017-Dec-12 06:02N 55°13' E 013°10'014.1
2017-Dec-12 05:59N 55°13' E 013°09'714.3
2017-Dec-12 05:31N 55°14' E 012°57'713.5
2017-Dec-12 05:00N 55°16' E 012°46'611.8
2017-Dec-12 04:30N 55°19' E 012°37'713.9
2017-Dec-12 04:00N 55°26' E 012°40'613.0
2017-Dec-12 03:30N 55°33' E 012°42'5 9.5
2017-Dec-12 03:00N 55°37' E 012°42'5 9.3
2017-Dec-12 02:30N 55°42' E 012°41'612.2
2017-Dec-12 02:00N 55°48' E 012°42'613.0
2017-Dec-12 01:30N 55°54' E 012°38'612.5
2017-Dec-12 01:00N 56°00' E 012°38'5 9.8
2017-Dec-12 00:30N 56°05' E 012°35'510.5
2017-Dec-12 00:00N 56°09' E 012°28'713.2
2017-Dec-11 23:30N 56°12' E 012°18'5312.5
2017-Dec-11 19:17N 57°01' E 011°41'412.9
2017-Dec-11 19:00N 57°04' E 011°39'612.4
2017-Dec-11 18:29N 57°10' E 011°35'612.6
2017-Dec-11 18:00N 57°16' E 011°31'713.0
2017-Dec-11 17:30N 57°22' E 011°27'713.1
2017-Dec-11 17:01N 57°28' E 011°23'713.0
2017-Dec-11 16:30N 57°32' E 011°14'713.3
2017-Dec-11 16:00N 57°37' E 011°05'713.0
2017-Dec-11 15:30N 57°41' E 010°56'612.5
2017-Dec-11 15:00N 57°46' E 010°48'611.7
2017-Dec-11 14:30N 57°48' E 010°38'612.9
2017-Dec-11 14:00N 57°48' E 010°26'8813.3
2017-Dec-11 07:25N 57°42' E 007°42'513.2
2017-Dec-11 07:00N 57°42' E 007°32'713.2
2017-Dec-11 06:30N 57°42' E 007°19'713.9
2017-Dec-11 06:00N 57°43' E 007°06'713.4
2017-Dec-11 05:30N 57°43' E 006°54'713.3
2017-Dec-11 05:00N 57°43' E 006°41'612.4
2017-Dec-11 04:30N 57°45' E 006°30'713.1
2017-Dec-11 04:00N 57°49' E 006°21'612.5
2017-Dec-11 03:29N 57°53' E 006°11'613.0
2017-Dec-11 03:00N 57°57' E 006°02'613.2
2017-Dec-11 02:30N 58°02' E 005°53'2613.0
2017-Dec-11 00:33N 58°18' E 005°16'112.6
2017-Dec-11 00:29N 58°18' E 005°15'612.7
2017-Dec-11 00:00N 58°23' E 005°06'612.9
2017-Dec-10 23:30N 58°27' E 004°57'713.5
2017-Dec-10 23:00N 58°31' E 004°47'  
Track history (hours):
 
Tides and Currents Weather Stations Pressure Air Temp Water Temp Dewpoint Dewpoint Depression Visibility Wind Speed Wind Dir Waves Ship Positions

Sierra Loba

Last reported at 2017-Dec-18 16:30 UTC. Time now 2017-Dec-18 16:48 UTC.
Position N 53°58' E 009°15'.

Length 118 m; draft 4.5 m.

Type: Cargo ship. MMSI: 306872000.

Date/timePositionNaut miles runAvg speedWind from/ knotsBaromVisibWave heightAir tempDewpointWater temp
2017-Dec-18 16:30N 53°58' E 009°15'4 7.8
2017-Dec-18 16:01N 54°01' E 009°18'4 7.7
2017-Dec-18 15:30N 54°05' E 009°19'4 8.4
2017-Dec-18 15:00N 54°09' E 009°21'4 7.6
2017-Dec-18 14:30N 54°11' E 009°27'4 8.6
2017-Dec-18 14:00N 54°12' E 009°34'4 7.5
2017-Dec-18 13:30N 54°16' E 009°37'0 0.9
2017-Dec-18 13:00N 54°16' E 009°38'3 6.7
2017-Dec-18 12:30N 54°18' E 009°42'3 5.9
2017-Dec-18 12:00N 54°20' E 009°45'4 7.7
2017-Dec-18 11:30N 54°22' E 009°51'10 4.9
2017-Dec-18 09:26N 54°22' E 010°09'1 2.7
2017-Dec-18 08:59N 54°23' E 010°11'7 5.9
2017-Dec-18 07:46N 54°29' E 010°16'413.0
2017-Dec-18 07:27N 54°31' E 010°22'714.6
2017-Dec-18 07:01N 54°34' E 010°32'714.7
2017-Dec-18 06:31N 54°35' E 010°45'815.2
2017-Dec-18 06:01N 54°36' E 010°58'715.0
2017-Dec-18 05:31N 54°36' E 011°11'815.4
2017-Dec-18 05:01N 54°33' E 011°22'815.2
2017-Dec-18 04:31N 54°29' E 011°34'715.0
2017-Dec-18 04:01N 54°27' E 011°46'1912.1
2017-Dec-18 02:28N 54°36' E 012°14'814.4
2017-Dec-18 01:55N 54°41' E 012°26'714.3
2017-Dec-18 01:27N 54°45' E 012°35'6913.5
2017-Dec-17 20:21N 54°39' E 014°34'615.1
2017-Dec-17 19:59N 54°41' E 014°43'914.9
2017-Dec-17 19:22N 54°43' E 014°58'514.9
2017-Dec-17 19:01N 54°45' E 015°07'12614.4
2017-Dec-17 10:17N 55°20' E 018°38'414.3
2017-Dec-17 09:59N 55°21' E 018°45'  
2017-Dec-12 15:56N 56°03' E 016°44'613.3
2017-Dec-12 15:30N 56°00' E 016°35'713.2
2017-Dec-12 15:00N 55°57' E 016°25'713.3
2017-Dec-12 14:30N 55°54' E 016°14'713.6
2017-Dec-12 14:00N 55°50' E 016°04'713.5
2017-Dec-12 13:30N 55°47' E 015°53'713.8
2017-Dec-12 13:00N 55°44' E 015°43'713.9
2017-Dec-12 12:30N 55°40' E 015°32'713.9
2017-Dec-12 12:01N 55°37' E 015°21'714.0
2017-Dec-12 11:30N 55°34' E 015°10'813.9
2017-Dec-12 10:58N 55°30' E 014°58'714.2
2017-Dec-12 10:30N 55°27' E 014°48'713.9
2017-Dec-12 10:00N 55°24' E 014°38'713.9
2017-Dec-12 09:30N 55°18' E 014°30'713.7
2017-Dec-12 09:00N 55°13' E 014°22'713.3
2017-Dec-12 08:31N 55°10' E 014°12'1514.4
2017-Dec-12 07:27N 55°11' E 013°45'2014.3
2017-Dec-12 06:02N 55°13' E 013°10'014.1
2017-Dec-12 05:59N 55°13' E 013°09'714.3
2017-Dec-12 05:31N 55°14' E 012°57'713.5
2017-Dec-12 05:00N 55°16' E 012°46'611.8
2017-Dec-12 04:30N 55°19' E 012°37'713.9
2017-Dec-12 04:00N 55°26' E 012°40'613.0
2017-Dec-12 03:30N 55°33' E 012°42'5 9.5
2017-Dec-12 03:00N 55°37' E 012°42'5 9.3
2017-Dec-12 02:30N 55°42' E 012°41'612.2
2017-Dec-12 02:00N 55°48' E 012°42'613.0
2017-Dec-12 01:30N 55°54' E 012°38'612.5
2017-Dec-12 01:00N 56°00' E 012°38'5 9.8
2017-Dec-12 00:30N 56°05' E 012°35'510.5
2017-Dec-12 00:00N 56°09' E 012°28'713.2
2017-Dec-11 23:30N 56°12' E 012°18'5312.5
2017-Dec-11 19:17N 57°01' E 011°41'412.9
2017-Dec-11 19:00N 57°04' E 011°39'612.4
2017-Dec-11 18:29N 57°10' E 011°35'612.6
2017-Dec-11 18:00N 57°16' E 011°31'713.0
2017-Dec-11 17:30N 57°22' E 011°27'713.1
2017-Dec-11 17:01N 57°28' E 011°23'713.0
2017-Dec-11 16:30N 57°32' E 011°14'713.3
2017-Dec-11 16:00N 57°37' E 011°05'713.0
2017-Dec-11 15:30N 57°41' E 010°56'612.5
2017-Dec-11 15:00N 57°46' E 010°48'611.7
2017-Dec-11 14:30N 57°48' E 010°38'612.9
2017-Dec-11 14:00N 57°48' E 010°26'8813.3
2017-Dec-11 07:25N 57°42' E 007°42'513.2
2017-Dec-11 07:00N 57°42' E 007°32'713.2
2017-Dec-11 06:30N 57°42' E 007°19'713.9
2017-Dec-11 06:00N 57°43' E 007°06'713.4
2017-Dec-11 05:30N 57°43' E 006°54'713.3
2017-Dec-11 05:00N 57°43' E 006°41'612.4
2017-Dec-11 04:30N 57°45' E 006°30'713.1
2017-Dec-11 04:00N 57°49' E 006°21'612.5
2017-Dec-11 03:29N 57°53' E 006°11'613.0
2017-Dec-11 03:00N 57°57' E 006°02'613.2
2017-Dec-11 02:30N 58°02' E 005°53'2613.0
2017-Dec-11 00:33N 58°18' E 005°16'112.6
2017-Dec-11 00:29N 58°18' E 005°15'612.7
2017-Dec-11 00:00N 58°23' E 005°06'612.9
2017-Dec-10 23:30N 58°27' E 004°57'713.5
2017-Dec-10 23:00N 58°31' E 004°47'  

Dump ship's entire track history